Prochaines Courses

Connexion

Général

DEFI VERT GENERAL du 05/10/13 (Reelle 31,5)
Rang Dossard Nom Prénom Temps Cat Rang Cat Ecart Ecart Cat Club Vitesse Km/h Temps au Km
1 2 LEDEZ Rémi FORTIN Léo 01:26:06 Sénior M 1 00:00:00 00:00:00 Cap Opale 21,951 02:44
2 20 LELIEVRE Michel FLIGNY Arnaud 01:26:52 Sénior M 2 00:00:46 00:00:46 Touquettois 21,757 02:45
3 59 BOULOGNE Jeremy CUCHEVAL Matthias 01:27:21 Sénior M 3 00:01:15 00:01:15 0 21,637 02:46
4 1 KUSCHNICK Philippe DERNONCOURT Mathieu 01:27:30 Vétéran M 1 00:01:24 00:00:00 Cap Opale Julbo 21,600 02:47
5 48 THESSE David THESSE Yann 01:31:53 Sénior M 4 00:05:47 00:05:47 Les Fréres Thesse'Stostérone 20,570 02:55
6 27 RICOUART Gérard RENAUX Frédéric 01:33:55 Sénior M 5 00:07:49 00:07:49 Team Ricouart 20,124 02:59
7 78 MASSET Frédéric LOREILLE Thomas 01:35:00 Sénior M 6 00:08:54 00:08:54 Athletico Mojito 19,895 03:01
8 3 HANQUEZ Rodrigue BARTHELEMY Christian 01:35:12 Sénior M 7 00:09:06 00:09:06 Cap Opale Véloland 19,853 03:01
9 66 DINIELLE Arnaud LANNOY Frédéric 01:35:19 Sénior M 8 00:09:13 00:09:13 Team Mono Sport 1 19,829 03:02
10 73 GYTHIEL Franck LOOTEN Bernard 01:35:52 Vétéran M 2 00:09:46 00:08:22 Manosport Veloland 19,715 03:03
11 5 POUTRAIN Kellig AIGOUY Damien 01:36:16 Sénior M 9 00:10:10 00:10:10 Lys AA Tri 1 19,633 03:03
12 23 HIDDEN Thierry DELARACE Jean-Marc 01:37:36 Vétéran M 3 00:11:30 00:10:06 TL59 19,365 03:06
13 39 DRANSART Adrien THOOR Nycolas 01:37:42 Sénior M 10 00:11:36 00:11:36 Equipe 30 19,345 03:06
14 7 CANAC Christophe BOCQUET Philippe 01:38:43 Vétéran M 4 00:12:37 00:11:13 Triathlon Club Boulogne 19,146 03:08
15 47 DESCAMPS Pascal REQUERA Hervé 01:39:08 Vétéran M 5 00:13:02 00:11:38 TL 59 19,065 03:09
16 25 LOEUILLEUX Stéphane LOEUILLEUX Pierre 01:40:41 Sénior M 11 00:14:35 00:14:35 Team Family 18,772 03:12
17 69 DELEZENNE Pascal RIFFARD Jean 01:40:58 Vétéran M 6 00:14:52 00:13:28 T2 Capathlon 18,719 03:12
18 17 WISCART Etienne JOETS Maxence 01:41:37 Cadet M 1 00:15:31 00:00:00 COT Triathlon 1 18,599 03:14
19 29 GEENS Cédric VILLEZ Valentin 01:42:13 Sénior M 12 00:16:07 00:16:07 Mon Beau Père et Moi 18,490 03:15
20 10 FIEVET Pascal MAZURIER Alain 01:42:16 Sénior M 13 00:16:10 00:16:10 Les CANIGOU 18,481 03:15
21 72 JACQUEMOD Mickael CROGIEZ José 01:42:56 Sénior M 14 00:16:50 00:16:50 Manosport Veloland 18,361 03:16
22 44 BRUNOT Yohann BIZ Delphine 01:43:24 Mixte 1 00:17:18 00:00:00 GSO Dunkerque Raid 18,279 03:17
23 70 VIGNAL Mickael VIGNAL Larry 01:44:21 Sénior M 15 00:18:15 00:18:15 VALMO 18,112 03:19
24 4 QUEVAL Charly CARRE Pauline 01:44:50 Mixte 2 00:18:44 00:01:26 Lille 2 La Tentation 18,029 03:20
25 21 FRISCOURT Jérome DEVEYCX Gauthier 01:45:19 Sénior M 16 00:19:13 00:19:13 Matrix Reloaded 17,946 03:21
26 13 ADMONT Stéphane MANTEZ Olivier 01:45:31 Vétéran M 7 00:19:25 00:18:01 AS Marck Athlé 1 17,912 03:21
27 51 HENEMAN Jean-Michel BLANPAIN Jean-Pierre 01:45:50 Vétéran M 8 00:19:44 00:18:20 Gravelines Tri 17,858 03:22
28 35 VANHILLE Christophe DEWAELE Michel 01:46:05 Vétéran M 9 00:19:59 00:18:35 Les Compères 17,816 03:22
29 61 GRESSIER Pascal LOYER Virginie 01:46:18 Mixte 3 00:20:12 00:02:54 0 17,780 03:22
30 32 FLECHEL Alixe QUEVAL Rémi 01:46:35 Mixte 4 00:20:29 00:03:11 Les Peine à Jouir 17,733 03:23
31 65 MEATS Antoine ROELS Pascal 01:46:37 Sénior M 17 00:20:31 00:20:31 AS Marck Athlé 2 17,727 03:23
32 8 CARPENTIER Thierry MAZURIER Erir 01:46:38 Vétéran M 10 00:20:32 00:19:08 Sport Evasion 2 Caps 1 17,724 03:23
33 45 SERGENT Romuald GRESSIER Olivier 01:46:48 Sénior M 18 00:20:42 00:20:42 Team Trail 62 17,697 03:23
34 26 BODART Vincent DESMOUST Stéphane 01:47:23 Vétéran M 11 00:21:17 00:19:53 Stade Longuenessois 17,600 03:25
35 79 LE BEC Michael LEVEL Fabien 01:47:53 Sénior M 19 00:21:47 00:21:47 Les Bof Bof 17,519 03:25
36 57 VIGONGNE Geoffrey FOULON Julien 01:48:13 Sénior M 20 00:22:07 00:22:07 Clik Clak Riders 17,465 03:26
37 76 NEMPON Daniel WALLYN Stéphane 01:48:17 Vétéran M 12 00:22:11 00:20:47 0 17,454 03:26
38 15 ARGENTIN Benoit MONCHY Cyprien 01:48:26 Sénior M 21 00:22:20 00:22:20 The First Will Be Last 17,430 03:27
39 43 VAILLANT Thierry LEFEBVRE Grégory 01:49:21 Vétéran M 13 00:23:15 00:21:51 Sang et Or 17,284 03:28
40 52 DUCANOAS Franck CAGANRD Jean-Damien 01:49:29 Sénior M 22 00:23:23 00:23:23 Les Slackers 17,263 03:29
41 62 GOURDIN Eric LEULEU Laeticia 01:49:39 Mixte 5 00:23:33 00:06:15 0 17,237 03:29
42 33 CAPELLE Jeanne BOYER Yvan 01:50:01 Mixte 6 00:23:55 00:06:37 Mare Monti 17,179 03:30
43 37 LECRAS Michel BOUDRINGHIN Jean-Marc 01:50:38 Vétéran M 14 00:24:32 00:23:08 Equipe 30 17,083 03:31
44 40 MONTIGNY Dimitri GAVOIS Cyril 01:52:20 Sénior M 23 00:26:14 00:26:14 Sport Evasion 2 Caps 3 16,825 03:34
45 68 BERTIN Thomas LAVOYE Loic 01:52:30 Cadet M 2 00:26:24 00:10:53 Les Jeunes du Lys 16,800 03:34
46 56 COUBET Philippe HENEMAN Christophe 01:53:18 Sénior M 24 00:27:12 00:27:12 Courir à Gravelines 16,681 03:36
47 54 VERPOORT Charlotte RINGOT Stéphanie 01:53:23 Sénior F 1 00:27:17 00:00:00 Les Filles en Rose 16,669 03:36
48 28 LECOUSTRE Kévin DEWET Brian 01:55:02 Sénior M 25 00:28:56 00:28:56 Les Guinois 16,430 03:39
49 74 AMAZ Laurent DEPATURE Franck 01:55:42 Sénior M 26 00:29:36 00:29:36 Les Gros Nazes 16,335 03:40
50 31 EVRARD Claire MASSON Annick 01:55:55 Sénior F 2 00:29:49 00:02:32 Lys AA Tri Women 16,305 03:41
51 42 BERLY Manuelle ROUTIER Maud 01:56:18 Sénior F 3 00:30:12 00:02:55 Les TriWomen 16,251 03:42
52 71 DEMILLY Mathieu RIVENEZ Mickael 01:56:42 Sénior M 27 00:30:36 00:30:36 T2 Capathlon 16,195 03:42
53 67 BILE Alain LABE Georges 01:56:54 Vétéran M 15 00:30:48 00:29:24 Team 64 16,168 03:43
54 6 BABIN Nicolas BABIN Lory 01:57:00 Sénior M 28 00:30:54 00:30:54 Les BABS 16,154 03:43
55 55 LAIDEZ Jonathan KUSCHNICK Fabrice 01:57:24 Sénior M 29 00:31:18 00:31:18 Team Sportanim 16,099 03:44
56 30 DHERBECOURT Christophe LEBLOND Jean-Pierre 01:57:33 Vétéran M 16 00:31:27 00:30:03 Equipe 30 16,078 03:44
57 14 CHARPENTIER Cécile ELZBACH Aurélie 01:57:40 Sénior F 4 00:31:34 00:04:17 Sport Evasion 2 Caps 2 16,062 03:44
58 22 ANDRIEUX Dimitri RADET Michèle 01:59:00 Mixte 7 00:32:54 00:15:36 CAP OPALE/LYS Tri 15,882 03:47
59 49 JOYEZ Frédéric GROUX Alex 02:00:17 Sénior M 30 00:34:11 00:34:11 Alfred 15,713 03:49
60 12 DELAYE Franck DESAGHERE Pierre 02:00:47 Sénior M 31 00:34:41 00:34:41 Les Pois sont Verts 15,648 03:50
61 18 WACCRENIER Adrien DE POORTER Sébatien 02:02:11 Sénior M 32 00:36:05 00:36:05 Les Globes Ploteur 15,469 03:53
62 24 DEPLECHIN David GODART Valérie 02:04:02 Mixte 8 00:37:56 00:20:38 Turtle Team 15,238 03:56
63 34 LELIEURE Christelle GREMONT Anne 02:06:21 Sénior F 5 00:40:15 00:12:58 No Stress 14,958 04:01
64 9 BODIN Amandine DELARUE Marie 02:07:36 Sénior F 6 00:41:30 00:14:13 Les Revenantes 14,812 04:03
65 16 BUY Jacques BECQUET Karine 02:08:28 Mixte 9 00:42:22 00:25:04 Les Vieux 14,712 04:05
66 50 ROUSSEL Charlotte DUREZ-NION Angélique 02:09:12 Sénior F 7 00:43:06 00:15:49 Les Gravelinoises 14,628 04:06
67 64 COUBELLE Olivier GODART Jérome 02:10:00 Sénior M 33 00:43:54 00:43:54 Les Passe-Pierres 14,538 04:08
68 63 PLARD Maxime LOGEZ Baptiste 02:11:13 Sénior M 34 00:45:07 00:45:07 0 14,404 04:10
69 36 CODRON Philippe CODRON Séverine 02:11:15 Mixte 10 00:45:09 00:27:51 Equipe 30 14,400 04:10
70 46 HURTRELLE Guylain LEFRANCOIS Olivier 02:13:41 Sénior M 35 00:47:35 00:47:35 Equipe 30 14,138 04:15
71 19 CAPON BENOIT SINGER Marie 02:18:07 Mixte 11 00:52:01 00:34:43 La Glace 2 Boules 13,684 04:23
72 58 FERAMUS Dimitri FERAMUS Sandrine 02:31:06 Mixte 12 01:05:00 00:47:42 Les Barbares 12,508 04:48
73 11 AUDREZET Guillaume PICQUENDAR Dany 02:34:14 Sénior M 36 01:08:08 01:08:08 FAUT S'FAIRE ZIZIR 12,254 04:54
74 60 DENAN Jeremie DENAN Céline 02:39:40 Mixte 13 01:13:34 00:56:16 La Team Denan 11,837 05:04